Chapleau, Canada
Current Conditions -  °F | °C
As of 4:00 PM on Friday 24 Oct 2014 (Local Time) from CYLD Reporting Station
Overcast Overcast  
Wind Chill: 43°   Ceiling: 900
Heat Index: 48°   Visibility: 15mi
Dew Point: 45°   Wind: 12mph
Humidity: 87%   Direction: 230°SW
Pressure: 29.86"   Gusts: NA
Location:  47.84°N, 83.4°W
Report Text: CYLD 242000Z 23010KT 15SM OVC009 09/07 A2986 RMK SC8 BLN VISBL1000 FT SLP130
Loading
Personal Weather Stations






























Interactive Weather Map
Tropical Storm Tracking
New forecast layout! Learn more

10-Day Weather Forecast

Advertisements
Track Severe Weather on mobile